createdAt,value
2018-12-14T00:00:07.193Z,2.50
2018-12-14T00:02:34.730Z,2.50
2018-12-14T00:05:02.270Z,2.50
2018-12-14T00:07:29.939Z,2.40
2018-12-14T00:09:57.477Z,2.50
2018-12-14T00:12:25.091Z,2.50
2018-12-14T00:14:57.078Z,2.50
2018-12-14T00:17:24.616Z,2.60
2018-12-14T00:19:52.146Z,2.50
2018-12-14T00:22:19.710Z,2.50
2018-12-14T00:24:47.242Z,2.50
2018-12-14T00:27:15.158Z,2.50
2018-12-14T00:29:42.803Z,2.50
2018-12-14T00:32:10.706Z,2.50
2018-12-14T00:34:38.247Z,2.50
2018-12-14T00:37:05.878Z,2.50
2018-12-14T00:39:33.417Z,2.50
2018-12-14T00:42:00.997Z,2.50
2018-12-14T00:44:29.248Z,2.50
2018-12-14T00:46:56.775Z,2.50
2018-12-14T00:49:24.395Z,2.50
2018-12-14T00:51:51.934Z,2.50
2018-12-14T00:54:19.467Z,2.50
2018-12-14T00:56:47.053Z,2.50
2018-12-14T00:59:14.595Z,2.50
2018-12-14T01:01:42.126Z,2.50
2018-12-14T01:04:09.710Z,2.60
2018-12-14T01:06:37.267Z,2.50
2018-12-14T01:09:05.444Z,2.50
2018-12-14T01:11:33.074Z,2.50
2018-12-14T01:14:00.606Z,2.50
2018-12-14T01:16:28.142Z,2.50
2018-12-14T01:18:55.714Z,2.50
2018-12-14T01:21:23.255Z,2.50
2018-12-14T01:23:50.797Z,2.40
2018-12-14T01:26:18.381Z,2.40
2018-12-14T01:28:46.834Z,2.40
2018-12-14T01:31:14.367Z,2.40
2018-12-14T01:33:41.967Z,2.50
2018-12-14T01:36:09.510Z,2.50
2018-12-14T01:38:37.044Z,2.50
2018-12-14T01:41:04.614Z,2.50
2018-12-14T01:43:32.203Z,2.50
2018-12-14T01:45:59.746Z,2.50
2018-12-14T01:48:27.277Z,2.50
2018-12-14T01:50:54.850Z,2.50
2018-12-14T01:53:22.379Z,2.50
2018-12-14T01:55:49.931Z,2.50
2018-12-14T01:58:17.554Z,2.50
2018-12-14T02:00:45.081Z,2.50
2018-12-14T02:03:12.647Z,2.50
2018-12-14T02:05:40.235Z,2.40
2018-12-14T02:08:07.831Z,2.40
2018-12-14T02:10:35.356Z,2.40
2018-12-14T02:13:02.979Z,2.30
2018-12-14T02:15:30.519Z,2.30
2018-12-14T02:17:58.099Z,2.30
2018-12-14T02:20:25.842Z,2.30
2018-12-14T02:22:53.375Z,2.30
2018-12-14T02:25:20.975Z,2.30
2018-12-14T02:27:48.534Z,2.30
2018-12-14T02:30:27.791Z,2.30
2018-12-14T02:32:55.431Z,2.40
2018-12-14T02:35:22.961Z,2.40
2018-12-14T02:37:50.661Z,2.40
2018-12-14T02:40:18.256Z,2.30
2018-12-14T02:42:45.794Z,2.20
2018-12-14T02:45:13.322Z,2.20
2018-12-14T02:47:40.906Z,2.20
2018-12-14T02:50:08.457Z,2.20
2018-12-14T02:52:35.991Z,2.20
2018-12-14T02:55:03.791Z,2.20
2018-12-14T02:57:31.322Z,2.20
2018-12-14T02:59:58.850Z,2.20
2018-12-14T03:02:26.429Z,2.20
2018-12-14T03:04:54.018Z,2.20
2018-12-14T03:07:21.625Z,2.20
2018-12-14T03:09:49.219Z,2.20
2018-12-14T03:12:16.757Z,2.20
2018-12-14T03:14:44.363Z,2.20
2018-12-14T03:17:12.090Z,2.20
2018-12-14T03:19:39.738Z,2.30
2018-12-14T03:22:07.424Z,2.30
2018-12-14T03:24:34.963Z,2.30
2018-12-14T03:27:02.548Z,2.40
2018-12-14T03:29:30.086Z,2.40
2018-12-14T03:31:57.645Z,2.40
2018-12-14T03:34:26.160Z,2.40
2018-12-14T03:36:53.699Z,2.40
2018-12-14T03:39:21.412Z,2.50
2018-12-14T03:41:49.084Z,2.50
2018-12-14T03:44:16.619Z,2.50
2018-12-14T03:46:44.231Z,2.50
2018-12-14T03:49:11.799Z,2.50
2018-12-14T03:51:39.332Z,2.50
2018-12-14T03:54:06.875Z,2.50
2018-12-14T03:56:34.882Z,2.60
2018-12-14T03:59:02.419Z,2.60
2018-12-14T04:01:29.951Z,2.50
2018-12-14T04:03:57.539Z,2.50
2018-12-14T04:06:25.151Z,2.40
2018-12-14T04:08:52.682Z,2.30
2018-12-14T04:11:20.278Z,2.30
2018-12-14T04:13:47.818Z,2.20
2018-12-14T04:16:15.382Z,2.20
2018-12-14T04:18:42.972Z,2.10
2018-12-14T04:21:10.540Z,2.10
2018-12-14T04:23:39.946Z,2.10
2018-12-14T04:26:07.683Z,2.10
2018-12-14T04:28:35.882Z,2.00
2018-12-14T04:31:03.428Z,2.10
2018-12-14T04:33:31.210Z,2.10
2018-12-14T04:35:58.814Z,2.10
2018-12-14T04:38:26.511Z,2.10
2018-12-14T04:40:54.088Z,2.10
2018-12-14T04:43:21.693Z,2.00
2018-12-14T04:45:49.227Z,2.10
2018-12-14T04:48:16.816Z,2.10
2018-12-14T04:50:44.401Z,2.10
2018-12-14T04:53:11.952Z,2.10
2018-12-14T04:55:39.526Z,2.10
2018-12-14T04:58:07.063Z,2.10
2018-12-14T05:00:34.669Z,2.10
2018-12-14T05:03:02.274Z,2.10
2018-12-14T05:05:29.879Z,2.10
2018-12-14T05:07:57.411Z,2.20
2018-12-14T05:10:25.038Z,2.20
2018-12-14T05:12:56.113Z,2.20
2018-12-14T05:15:22.232Z,2.20
2018-12-14T05:17:49.835Z,2.20
2018-12-14T05:20:17.375Z,2.20
2018-12-14T05:22:44.921Z,2.30
2018-12-14T05:25:12.512Z,2.20
2018-12-14T05:27:40.062Z,2.20
2018-12-14T05:30:07.938Z,2.20
2018-12-14T05:32:36.616Z,2.20
2018-12-14T05:35:04.613Z,2.20
2018-12-14T05:37:32.204Z,2.20
2018-12-14T05:39:59.740Z,2.20
2018-12-14T05:42:27.585Z,2.20
2018-12-14T05:44:55.171Z,2.20
2018-12-14T05:47:22.856Z,2.20
2018-12-14T05:49:50.394Z,2.20
2018-12-14T05:52:18.044Z,2.20
2018-12-14T05:54:45.583Z,2.20
2018-12-14T05:57:13.128Z,2.20
2018-12-14T05:59:40.723Z,2.10
2018-12-14T06:02:08.287Z,2.10
2018-12-14T06:04:35.839Z,2.20
2018-12-14T06:07:03.488Z,2.20
2018-12-14T06:09:31.032Z,2.20
2018-12-14T06:11:58.572Z,2.30
2018-12-14T06:14:26.155Z,2.30
2018-12-14T06:16:53.739Z,2.30
2018-12-14T06:19:21.295Z,2.30
2018-12-14T06:21:48.853Z,2.30
2018-12-14T06:24:16.457Z,2.20
2018-12-14T06:26:44.106Z,2.20
2018-12-14T06:29:11.670Z,2.20
2018-12-14T06:31:39.274Z,2.20
2018-12-14T06:34:06.831Z,2.20
2018-12-14T06:36:34.375Z,2.20
2018-12-14T06:39:01.962Z,2.20
2018-12-14T06:41:29.517Z,2.10
2018-12-14T06:43:57.065Z,2.10
2018-12-14T06:46:24.667Z,2.10
2018-12-14T06:48:52.222Z,2.20
2018-12-14T06:51:19.760Z,2.10
2018-12-14T06:53:47.364Z,2.20
2018-12-14T06:56:14.920Z,2.10
2018-12-14T06:58:42.469Z,2.10
2018-12-14T07:01:10.080Z,2.10
2018-12-14T07:03:37.643Z,2.10
2018-12-14T07:06:05.308Z,2.10
2018-12-14T07:08:32.895Z,2.10
2018-12-14T07:11:00.446Z,2.10
2018-12-14T07:13:28.005Z,2.10
2018-12-14T07:15:55.601Z,2.10
2018-12-14T07:18:23.148Z,2.10
2018-12-14T07:20:50.757Z,2.10
2018-12-14T07:23:18.358Z,2.10
2018-12-14T07:25:45.898Z,2.20
2018-12-14T07:28:13.519Z,2.20
2018-12-14T07:30:41.104Z,2.20
2018-12-14T07:33:08.663Z,2.20
2018-12-14T07:35:41.745Z,2.20
2018-12-14T07:38:05.819Z,2.30
2018-12-14T07:40:33.362Z,2.30
2018-12-14T07:43:00.961Z,2.30
2018-12-14T07:45:29.287Z,2.20
2018-12-14T07:47:56.883Z,2.20
2018-12-14T07:50:24.432Z,2.20
2018-12-14T07:52:53.939Z,2.20
2018-12-14T07:55:21.526Z,2.20
2018-12-14T07:57:49.083Z,2.20
2018-12-14T08:00:16.628Z,2.20
2018-12-14T08:02:44.218Z,2.20
2018-12-14T08:05:11.832Z,2.20
2018-12-14T08:07:39.407Z,2.20
2018-12-14T08:10:07.115Z,2.20
2018-12-14T08:12:34.662Z,2.20
2018-12-14T08:15:02.279Z,2.10
2018-12-14T08:17:29.888Z,2.10
2018-12-14T08:19:57.447Z,2.10
2018-12-14T08:22:25.032Z,2.10
2018-12-14T08:24:52.681Z,2.20
2018-12-14T08:27:20.228Z,2.20
2018-12-14T08:29:47.771Z,2.20
2018-12-14T08:32:15.372Z,2.30
2018-12-14T08:34:42.919Z,2.30
2018-12-14T08:37:10.458Z,2.30
2018-12-14T08:39:38.055Z,2.40
2018-12-14T08:42:05.687Z,2.50
2018-12-14T08:44:33.231Z,2.50
2018-12-14T08:47:00.821Z,2.50
2018-12-14T08:49:28.463Z,2.50
2018-12-14T08:51:56.011Z,2.50
2018-12-14T08:54:23.586Z,2.50
2018-12-14T08:56:51.139Z,2.50
2018-12-14T08:59:18.679Z,2.50
2018-12-14T09:01:46.263Z,2.50
2018-12-14T09:04:14.983Z,2.50
2018-12-14T09:06:42.606Z,2.50
2018-12-14T09:09:10.188Z,2.50
2018-12-14T09:11:37.736Z,2.50
2018-12-14T09:14:05.276Z,2.50
2018-12-14T09:16:32.871Z,2.50
2018-12-14T09:19:01.338Z,2.50
2018-12-14T09:21:28.886Z,2.50
2018-12-14T09:23:56.471Z,2.50
2018-12-14T09:26:24.012Z,2.40
2018-12-14T09:28:51.551Z,2.40
2018-12-14T09:31:19.200Z,2.40
2018-12-14T09:33:46.839Z,2.40
2018-12-14T09:36:14.390Z,2.40
2018-12-14T09:38:41.979Z,2.40
2018-12-14T09:41:16.016Z,2.50
2018-12-14T09:43:39.178Z,2.50
2018-12-14T09:46:06.766Z,2.50
2018-12-14T09:48:34.306Z,2.50
2018-12-14T09:51:01.854Z,2.50
2018-12-14T09:53:29.431Z,2.50
2018-12-14T09:55:56.978Z,2.50
2018-12-14T09:58:24.513Z,2.50
2018-12-14T10:00:52.282Z,2.40
2018-12-14T10:03:19.828Z,2.40
2018-12-14T10:05:47.379Z,2.40
2018-12-14T10:08:15.229Z,2.40
2018-12-14T10:10:43.197Z,2.50
2018-12-14T10:13:11.112Z,2.40
2018-12-14T10:15:38.655Z,2.40
2018-12-14T10:18:06.247Z,2.50
2018-12-14T10:20:33.789Z,2.50
2018-12-14T10:23:02.147Z,2.50
2018-12-14T10:25:29.708Z,2.50
2018-12-14T10:27:57.243Z,2.40
2018-12-14T10:30:24.800Z,2.40
2018-12-14T10:32:52.390Z,2.30
2018-12-14T10:35:19.958Z,2.40
2018-12-14T10:37:47.506Z,2.40
2018-12-14T10:40:15.101Z,2.40
2018-12-14T10:42:42.651Z,2.50
2018-12-14T10:45:10.192Z,2.50
2018-12-14T10:47:37.779Z,2.50
2018-12-14T10:50:05.552Z,2.60
2018-12-14T10:52:33.169Z,2.50
2018-12-14T10:55:00.754Z,2.50
2018-12-14T10:57:28.307Z,2.50
2018-12-14T10:59:55.848Z,2.50
2018-12-14T11:02:23.428Z,2.60
2018-12-14T11:04:51.111Z,2.60
2018-12-14T11:07:18.661Z,2.70
2018-12-14T11:09:46.247Z,2.60
2018-12-14T11:12:13.787Z,2.60
2018-12-14T11:14:41.346Z,2.60
2018-12-14T11:17:08.939Z,2.50
2018-12-14T11:19:37.326Z,2.50
2018-12-14T11:22:04.872Z,2.50
2018-12-14T11:24:33.482Z,2.50
2018-12-14T11:27:01.019Z,2.50
2018-12-14T11:29:28.575Z,2.50
2018-12-14T11:31:56.163Z,2.60
2018-12-14T11:34:29.543Z,2.60
2018-12-14T11:36:53.341Z,2.60
2018-12-14T11:39:20.930Z,2.70
2018-12-14T11:41:48.471Z,2.70
2018-12-14T11:44:20.670Z,2.70
2018-12-14T11:46:45.707Z,2.60
2018-12-14T11:49:13.247Z,2.60
2018-12-14T11:51:40.787Z,2.60
2018-12-14T11:54:08.361Z,2.60
2018-12-14T11:56:35.949Z,2.60
2018-12-14T11:59:03.483Z,2.70
2018-12-14T12:01:31.038Z,2.80
2018-12-14T12:03:58.619Z,2.70
2018-12-14T12:06:26.228Z,2.70
2018-12-14T12:08:53.779Z,2.80
2018-12-14T12:11:21.656Z,2.80
2018-12-14T12:13:49.452Z,2.80
2018-12-14T12:16:17.131Z,2.90
2018-12-14T12:18:44.775Z,2.90
2018-12-14T12:21:12.317Z,2.80
2018-12-14T12:23:39.864Z,2.60
2018-12-14T12:26:07.591Z,2.60
2018-12-14T12:28:35.385Z,2.60
2018-12-14T12:31:03.574Z,2.70
2018-12-14T12:33:31.263Z,2.50
2018-12-14T12:35:58.798Z,2.50
2018-12-14T12:38:26.334Z,2.40
2018-12-14T12:40:54.202Z,2.30
2018-12-14T12:43:21.763Z,2.30
2018-12-14T12:45:49.398Z,2.30
2018-12-14T12:48:17.132Z,2.30
2018-12-14T12:50:44.730Z,2.30
2018-12-14T12:53:14.316Z,2.20
2018-12-14T12:55:42.150Z,2.20
2018-12-14T12:58:09.734Z,2.20
2018-12-14T13:00:37.640Z,2.20
2018-12-14T13:03:05.480Z,2.20
2018-12-14T13:05:35.025Z,2.20
2018-12-14T13:08:02.850Z,2.30
2018-12-14T13:10:30.502Z,2.30
2018-12-14T13:12:58.083Z,2.20
2018-12-14T13:15:25.826Z,2.20
2018-12-14T13:17:53.669Z,2.20
2018-12-14T13:20:21.270Z,2.20
2018-12-14T13:22:48.929Z,2.30
2018-12-14T13:25:16.923Z,2.30
2018-12-14T13:27:44.584Z,2.20
2018-12-14T13:30:12.119Z,2.30
2018-12-14T13:32:39.717Z,2.20
2018-12-14T13:35:07.417Z,2.20
2018-12-14T13:37:34.976Z,2.20
2018-12-14T13:40:02.576Z,2.40
2018-12-14T13:42:30.276Z,2.30
2018-12-14T13:44:58.235Z,2.30
2018-12-14T13:47:25.939Z,2.30
2018-12-14T13:49:53.566Z,2.30
2018-12-14T13:52:21.525Z,2.30
2018-12-14T13:54:49.258Z,2.30
2018-12-14T13:57:17.123Z,2.20
2018-12-14T13:59:44.790Z,2.20
2018-12-14T14:02:12.650Z,2.30
2018-12-14T14:04:40.210Z,2.30
2018-12-14T14:07:07.777Z,2.30
2018-12-14T14:09:36.527Z,2.30
2018-12-14T14:12:04.099Z,2.20
2018-12-14T14:14:31.750Z,2.10
2018-12-14T14:16:59.752Z,2.10
2018-12-14T14:19:27.539Z,2.10
2018-12-14T14:21:55.244Z,2.00
2018-12-14T14:24:22.973Z,2.00
2018-12-14T14:26:50.654Z,2.00
2018-12-14T14:29:18.262Z,2.00
2018-12-14T14:31:45.918Z,2.00
2018-12-14T14:34:13.620Z,2.00
2018-12-14T14:36:41.175Z,2.00
2018-12-14T14:39:08.719Z,1.90
2018-12-14T14:41:36.895Z,1.90
2018-12-14T14:44:04.450Z,1.90
2018-12-14T14:46:32.005Z,2.00
2018-12-14T14:48:59.679Z,2.00
2018-12-14T14:51:27.498Z,2.00
2018-12-14T14:53:55.084Z,2.00
2018-12-14T14:56:22.685Z,2.00
2018-12-14T14:58:50.253Z,2.00
2018-12-14T15:01:17.820Z,2.00
2018-12-14T15:03:46.326Z,1.90
2018-12-14T15:06:13.874Z,2.00
2018-12-14T15:08:41.436Z,1.90
2018-12-14T15:11:09.065Z,1.90
2018-12-14T15:13:37.243Z,1.90
2018-12-14T15:16:04.789Z,1.90
2018-12-14T15:18:32.432Z,2.00
2018-12-14T15:20:59.981Z,2.00
2018-12-14T15:23:27.541Z,2.00
2018-12-14T15:25:55.135Z,2.00
2018-12-14T15:28:22.687Z,2.00
2018-12-14T15:30:50.242Z,2.00
2018-12-14T15:33:17.831Z,2.00
2018-12-14T15:35:45.413Z,2.00
2018-12-14T15:38:12.972Z,2.10
2018-12-14T15:40:40.608Z,2.10
2018-12-14T15:43:08.178Z,2.10
2018-12-14T15:45:35.754Z,2.10
2018-12-14T15:48:03.523Z,2.10
2018-12-14T15:50:31.448Z,2.10
2018-12-14T15:52:59.145Z,2.00
2018-12-14T15:55:26.743Z,2.00
2018-12-14T15:57:54.615Z,2.10
2018-12-14T16:00:22.391Z,2.10
2018-12-14T16:02:50.073Z,2.10
2018-12-14T16:05:17.720Z,2.10
2018-12-14T16:07:45.270Z,2.10
2018-12-14T16:10:12.953Z,2.10
2018-12-14T16:12:40.515Z,2.10
2018-12-14T16:15:08.421Z,2.10
2018-12-14T16:17:36.262Z,2.00
2018-12-14T16:20:05.724Z,2.00
2018-12-14T16:22:33.275Z,2.00
2018-12-14T16:25:00.902Z,2.00
2018-12-14T16:27:28.548Z,2.00
2018-12-14T16:29:56.094Z,2.00
2018-12-14T16:32:23.727Z,2.00
2018-12-14T16:34:51.273Z,2.00
2018-12-14T16:37:18.822Z,2.10
2018-12-14T16:39:46.402Z,2.10
2018-12-14T16:42:14.125Z,2.00
2018-12-14T16:44:42.000Z,2.00
2018-12-14T16:47:09.844Z,2.10
2018-12-14T16:49:38.251Z,2.00
2018-12-14T16:52:05.819Z,2.10
2018-12-14T16:54:33.473Z,2.10
2018-12-14T16:57:01.159Z,2.10
2018-12-14T16:59:28.700Z,2.20
2018-12-14T17:01:56.290Z,2.20
2018-12-14T17:04:23.994Z,2.30
2018-12-14T17:06:51.544Z,2.20
2018-12-14T17:09:19.135Z,2.10
2018-12-14T17:11:46.691Z,2.10
2018-12-14T17:14:14.239Z,2.10
2018-12-14T17:16:41.812Z,2.20
2018-12-14T17:19:09.419Z,2.20
2018-12-14T17:21:36.961Z,2.10
2018-12-14T17:24:04.510Z,2.00
2018-12-14T17:26:32.075Z,2.00
2018-12-14T17:28:59.617Z,2.00
2018-12-14T17:31:27.366Z,2.00
2018-12-14T17:33:54.976Z,2.00
2018-12-14T17:36:22.531Z,2.10
2018-12-14T17:38:50.121Z,2.10
2018-12-14T17:41:17.727Z,2.10
2018-12-14T17:43:45.270Z,2.00
2018-12-14T17:46:12.887Z,1.90
2018-12-14T17:48:41.525Z,1.90
2018-12-14T17:51:09.340Z,1.90
2018-12-14T17:53:37.202Z,1.90
2018-12-14T17:56:04.773Z,1.90
2018-12-14T17:58:32.425Z,1.90
2018-12-14T18:01:00.056Z,1.80
2018-12-14T18:03:28.326Z,1.90
2018-12-14T18:05:56.128Z,1.90
2018-12-14T18:08:23.743Z,1.80
2018-12-14T18:10:51.306Z,1.90
2018-12-14T18:13:19.037Z,1.90
2018-12-14T18:15:46.786Z,1.90
2018-12-14T18:18:16.176Z,1.80
2018-12-14T18:20:43.743Z,1.80
2018-12-14T18:23:11.395Z,1.70
2018-12-14T18:25:39.158Z,1.70
2018-12-14T18:28:06.942Z,1.70
2018-12-14T18:30:34.670Z,1.70
2018-12-14T18:33:02.654Z,1.70
2018-12-14T18:35:30.547Z,1.70
2018-12-14T18:37:58.154Z,1.60
2018-12-14T18:40:25.698Z,1.60
2018-12-14T18:42:53.318Z,1.50
2018-12-14T18:45:20.873Z,1.50
2018-12-14T18:47:48.411Z,1.50
2018-12-14T18:50:15.998Z,1.50
2018-12-14T18:52:44.031Z,1.50
2018-12-14T18:55:11.924Z,1.60
2018-12-14T18:57:39.867Z,1.60
2018-12-14T19:00:08.091Z,1.60
2018-12-14T19:02:35.635Z,1.60
2018-12-14T19:05:03.636Z,1.60
2018-12-14T19:07:31.323Z,1.70
2018-12-14T19:09:59.072Z,1.70
2018-12-14T19:12:27.268Z,1.70
2018-12-14T19:14:54.987Z,1.70
2018-12-14T19:17:22.528Z,1.70
2018-12-14T19:19:50.133Z,1.70
2018-12-14T19:22:17.684Z,1.80
2018-12-14T19:24:45.258Z,1.70
2018-12-14T19:27:13.074Z,1.70
2018-12-14T19:29:40.720Z,1.60
2018-12-14T19:32:08.529Z,1.50
2018-12-14T19:34:36.135Z,1.50
2018-12-14T19:37:03.919Z,1.60
2018-12-14T19:39:31.670Z,1.50
2018-12-14T19:41:59.525Z,1.50
2018-12-14T19:44:27.334Z,1.50
2018-12-14T19:46:54.943Z,1.50
2018-12-14T19:49:22.541Z,1.50
2018-12-14T19:51:50.361Z,1.50
2018-12-14T19:54:18.172Z,1.50
2018-12-14T19:56:46.090Z,1.50
2018-12-14T19:59:13.787Z,1.50
2018-12-14T20:01:41.624Z,1.40
2018-12-14T20:04:09.173Z,1.40
2018-12-14T20:06:36.879Z,1.40
2018-12-14T20:09:05.598Z,1.40
2018-12-14T20:11:33.178Z,1.50
2018-12-14T20:14:01.783Z,1.50
2018-12-14T20:16:29.464Z,1.50
2018-12-14T20:18:57.027Z,1.50
2018-12-14T20:21:24.585Z,1.50
2018-12-14T20:23:52.165Z,1.60
2018-12-14T20:26:19.724Z,1.60
2018-12-14T20:28:47.307Z,1.70
2018-12-14T20:33:47.786Z,1.60
2018-12-14T20:36:15.358Z,1.60
2018-12-14T20:38:42.911Z,1.50
2018-12-14T20:41:10.511Z,1.60
2018-12-14T20:43:38.076Z,1.50
2018-12-14T20:46:05.631Z,1.50
2018-12-14T20:48:33.225Z,1.50
2018-12-14T20:51:00.789Z,1.50
2018-12-14T20:53:28.368Z,1.50
2018-12-14T20:55:56.192Z,1.50
2018-12-14T20:58:23.890Z,1.50
2018-12-14T21:00:51.475Z,1.50
2018-12-14T21:03:19.067Z,1.50
2018-12-14T21:05:47.301Z,1.40
2018-12-14T21:08:14.874Z,1.40
2018-12-14T21:10:42.440Z,1.40
2018-12-14T21:13:10.150Z,1.40
2018-12-14T21:15:37.708Z,1.40
2018-12-14T21:18:05.370Z,1.40
2018-12-14T21:20:32.907Z,1.40
2018-12-14T21:23:00.555Z,1.50
2018-12-14T21:25:28.206Z,1.50
2018-12-14T21:27:55.759Z,1.50
2018-12-14T21:30:23.323Z,1.50
2018-12-14T21:32:50.985Z,1.40
2018-12-14T21:35:18.523Z,1.40
2018-12-14T21:37:46.068Z,1.40
2018-12-14T21:40:14.627Z,1.40
2018-12-14T21:42:42.170Z,1.40
2018-12-14T21:45:09.855Z,1.40
2018-12-14T21:47:37.451Z,1.40
2018-12-14T21:50:05.570Z,1.50
2018-12-14T21:52:33.116Z,1.50
2018-12-14T21:55:00.744Z,1.50
2018-12-14T21:57:28.315Z,1.50
2018-12-14T21:59:55.868Z,1.40
2018-12-14T22:02:23.487Z,1.40
2018-12-14T22:04:51.038Z,1.40
2018-12-14T22:07:18.719Z,1.30
2018-12-14T22:09:46.268Z,1.30
2018-12-14T22:12:14.797Z,1.30
2018-12-14T22:14:42.357Z,1.30
2018-12-14T22:17:09.944Z,1.20
2018-12-14T22:19:37.546Z,1.20
2018-12-14T22:22:05.180Z,1.30
2018-12-14T22:24:32.769Z,1.20
2018-12-14T22:27:00.315Z,1.20
2018-12-14T22:29:27.881Z,1.20
2018-12-14T22:32:04.196Z,1.20
2018-12-14T22:34:31.752Z,1.20
2018-12-14T22:36:59.347Z,1.20
2018-12-14T22:39:28.240Z,1.20
2018-12-14T22:41:56.368Z,1.20
2018-12-14T22:44:23.970Z,1.20
2018-12-14T22:46:52.161Z,1.20
2018-12-14T22:49:19.740Z,1.20
2018-12-14T22:51:47.414Z,1.10
2018-12-14T22:54:15.975Z,1.20
2018-12-14T22:56:43.520Z,1.20
2018-12-14T22:59:11.152Z,1.20
2018-12-14T23:01:38.751Z,1.20
2018-12-14T23:04:06.306Z,1.20
2018-12-14T23:06:33.957Z,1.20
2018-12-14T23:09:01.515Z,1.20
2018-12-14T23:11:29.089Z,1.20
2018-12-14T23:13:56.711Z,1.10
2018-12-14T23:16:24.286Z,1.10
2018-12-14T23:18:51.855Z,1.10
2018-12-14T23:21:19.455Z,1.10
2018-12-14T23:23:47.031Z,1.10
2018-12-14T23:26:14.582Z,1.10
2018-12-14T23:28:42.172Z,1.10
2018-12-14T23:31:09.707Z,1.00
2018-12-14T23:33:37.287Z,1.00
2018-12-14T23:36:04.947Z,1.00
2018-12-14T23:38:32.495Z,1.00
2018-12-14T23:41:00.061Z,1.00
2018-12-14T23:43:27.655Z,1.00
2018-12-14T23:45:55.194Z,1.00
2018-12-14T23:48:22.741Z,1.00
2018-12-14T23:50:50.352Z,1.00
2018-12-14T23:53:17.944Z,1.00
2018-12-14T23:55:45.535Z,1.00
2018-12-14T23:58:13.132Z,1.00
